Terminal Aerodrome Forecast
Issued by NWS

Home | Current Version | Previous Version | Text Only | Print | Product List | Glossary On
Versions: 1 2 3 4 5 6 7 8 9 10 11 12 13 14 15 16 17 18 19 20 21 22 23 24 25 26 27 28 29
000
FTUS43 KDVN 252334
TAFCID
TAF
KCID 252334Z 2600/2624 19012KT P6SM FEW050
     FM260130 18005KT P6SM SCT080
     FM260500 19005KT P6SM VCTS BKN050CB
     FM261100 17005KT 5SM BR BKN025
     FM261500 20009KT 6SM -SHRA BR BKN030=

USA.gov is the U.S. government's official web portal to all federal, state and local government web resources and services.